Time;durP1;ratioP1;P1;durP2;ratioP2;P2;SDS_P1;SDS_P2;PMS_P1;PMS_P2;Temp;Humidity;BMP_temperature;BMP_pressure;BME280_temperature;BME280_humidity;BME280_pressure;Samples;Min_cycle;Max_cycle;Signal;HPM_P1;HPM_P2
2021/03/12 00:06:20;;;;;;;10.48;5.78;;;4.60;99.90;;;;;;20896702;28;20098;-65
2021/03/12 00:16:22;;;;;;;12.88;6.40;;;4.60;99.90;;;;;;20895189;28;20402;-65
2021/03/12 00:26:23;;;;;;;16.77;6.10;;;4.60;99.90;;;;;;20877980;28;20033;-65
2021/03/12 00:36:26;;;;;;;9.68;4.75;;;4.50;99.90;;;;;;20859157;28;20041;-65
2021/03/12 00:46:27;;;;;;;11.60;6.47;;;4.50;99.90;;;;;;20893137;28;20071;-66
2021/03/12 00:56:30;;;;;;;5.13;3.33;;;4.40;99.90;;;;;;20892865;28;20099;-66
2021/03/12 01:06:33;;;;;;;2.85;1.75;;;4.30;99.90;;;;;;20873585;28;20494;-64
2021/03/12 01:16:38;;;;;;;2.92;1.20;;;4.10;99.90;;;;;;20872901;28;20121;-64
2021/03/12 01:26:42;;;;;;;1.55;0.88;;;3.60;99.90;;;;;;20873701;28;20041;-64
2021/03/12 01:36:48;;;;;;;2.78;1.58;;;3.20;99.90;;;;;;20872294;28;20033;-63
2021/03/12 01:46:51;;;;;;;6.38;3.45;;;3.30;99.90;;;;;;20854968;28;20033;-63
2021/03/12 01:56:54;;;;;;;13.63;6.85;;;3.70;99.90;;;;;;20871757;28;20040;-64
2021/03/12 02:07:12;;;;;;;14.23;7.55;;;3.90;99.90;;;;;;20855187;28;20458;-64
2021/03/12 02:17:27;;;;;;;16.42;9.55;;;4.10;99.90;;;;;;20868823;28;20051;-64
2021/03/12 02:27:32;;;;;;;18.67;10.05;;;4.10;99.90;;;;;;20887056;28;20059;-64
2021/03/12 02:37:36;;;;;;;14.75;8.77;;;4.10;99.90;;;;;;20868372;28;20292;-65
2021/03/12 02:47:39;;;;;;;23.60;11.88;;;4.20;99.90;;;;;;20867042;28;20052;-65
2021/03/12 02:57:47;;;;;;;22.17;11.48;;;4.20;99.90;;;;;;20868634;28;20033;-65
2021/03/12 03:07:50;;;;;;;19.67;11.52;;;4.20;99.90;;;;;;20889862;28;20560;-65
2021/03/12 03:17:54;;;;;;;17.58;9.60;;;4.20;99.90;;;;;;20881371;28;20107;-65
2021/03/12 03:28:09;;;;;;;21.90;10.57;;;4.30;99.90;;;;;;20881968;28;20403;-65
2021/03/12 03:38:11;;;;;;;15.18;9.20;;;4.30;99.90;;;;;;20880656;28;20045;-65
2021/03/12 03:48:15;;;;;;;20.13;9.13;;;4.30;99.90;;;;;;20898113;28;20033;-65
2021/03/12 03:58:18;;;;;;;14.95;8.38;;;4.30;99.90;;;;;;20880829;28;20090;-65
2021/03/12 04:08:22;;;;;;;16.88;7.80;;;4.40;99.90;;;;;;20877767;28;20045;-65
2021/03/12 04:18:25;;;;;;;13.32;8.15;;;4.50;99.90;;;;;;20877164;28;20045;-65
2021/03/12 04:28:29;;;;;;;12.00;7.13;;;4.30;99.90;;;;;;20861404;28;20055;-65
2021/03/12 04:38:32;;;;;;;18.75;9.30;;;4.30;99.90;;;;;;20859393;28;20037;-65
2021/03/12 04:48:36;;;;;;;17.45;8.77;;;4.10;99.90;;;;;;20875290;28;20041;-65
2021/03/12 04:58:40;;;;;;;8.45;4.70;;;4.00;99.90;;;;;;20876423;28;20041;-64
2021/03/12 05:08:44;;;;;;;9.88;5.00;;;3.80;99.90;;;;;;20890240;28;20049;-65
2021/03/12 05:18:56;;;;;;;7.00;3.85;;;4.00;99.90;;;;;;20873116;28;20041;-64
2021/03/12 05:28:58;;;;;;;5.88;3.55;;;3.70;99.90;;;;;;20889914;28;20037;-65
2021/03/12 05:39:01;;;;;;;9.32;4.25;;;4.10;99.90;;;;;;20882685;28;20448;-65
2021/03/12 05:49:07;;;;;;;6.72;3.10;;;4.20;99.90;;;;;;20870515;28;20033;-65
2021/03/12 05:59:09;;;;;;;3.95;2.67;;;4.00;99.90;;;;;;20871166;28;20037;-64
2021/03/12 06:09:11;;;;;;;3.78;2.53;;;4.90;99.90;;;;;;20868934;28;20052;-64
2021/03/12 06:19:16;;;;;;;3.47;1.80;;;5.10;99.90;;;;;;20868663;28;20428;-65
2021/03/12 06:29:40;;;;;;;18.05;10.48;;;5.00;99.90;;;;;;20869829;28;20237;-65
2021/03/12 06:40:27;;;;;;;31.55;17.17;;;4.30;99.90;;;;;;20804040;28;20033;-65
2021/03/12 06:51:09;;;;;;;128.80;29.58;;;3.40;99.90;;;;;;20860715;28;20083;-66
2021/03/12 07:01:20;;;;;;;535.20;42.65;;;3.00;99.90;;;;;;20883333;28;20091;-66
2021/03/12 07:11:30;;;;;;;147.07;29.80;;;3.10;99.90;;;;;;20867554;28;20072;-66
2021/03/12 07:21:51;;;;;;;96.88;27.38;;;3.20;99.90;;;;;;20890152;28;20049;-66
2021/03/12 07:32:00;;;;;;;36.85;21.83;;;3.40;99.90;;;;;;20881451;28;20502;-66
2021/03/12 07:42:07;;;;;;;37.30;19.95;;;3.70;99.90;;;;;;20849197;28;20479;-67
2021/03/12 07:52:50;;;;;;;31.33;17.95;;;4.30;99.90;;;;;;20897414;28;20104;-67
2021/03/12 08:03:01;;;;;;;31.63;18.23;;;4.70;99.90;;;;;;20878201;28;20061;-68
2021/03/12 08:13:36;;;;;;;26.63;16.50;;;5.10;99.90;;;;;;20879134;28;20469;-67
2021/03/12 08:23:48;;;;;;;34.67;19.15;;;5.80;99.90;;;;;;20862526;28;20037;-67
2021/03/12 08:34:19;;;;;;;;;;;5.30;99.90;;;;;;20884385;28;20033;-67
2021/03/12 08:44:40;;;;;;;43.47;24.48;;;5.20;99.90;;;;;;20875707;28;19943;-67
2021/03/12 08:55:00;;;;;;;38.88;21.05;;;5.00;99.90;;;;;;20875180;28;20099;-67
2021/03/12 09:05:31;;;;;;;35.63;19.23;;;5.30;99.90;;;;;;20872873;28;20106;-67
2021/03/12 09:16:07;;;;;;;29.77;17.80;;;5.70;99.90;;;;;;20878989;28;20049;-67
2021/03/12 09:26:20;;;;;;;36.83;21.98;;;6.60;99.90;;;;;;20857345;28;20098;-67
2021/03/12 09:36:35;;;;;;;39.03;22.30;;;7.40;99.90;;;;;;20871472;28;20040;-67
2021/03/12 09:46:51;;;;;;;41.30;26.27;;;7.70;99.90;;;;;;20871109;28;20106;-67
2021/03/12 09:56:57;;;;;;;38.95;23.08;;;7.50;99.90;;;;;;20871141;28;20045;-67
2021/03/12 10:07:07;;;;;;;36.75;23.58;;;7.70;99.90;;;;;;20870068;28;20106;-66
2021/03/12 10:17:28;;;;;;;38.88;24.85;;;8.00;99.90;;;;;;20869177;28;20045;-67
2021/03/12 10:27:44;;;;;;;44.08;27.05;;;9.00;99.90;;;;;;20869808;28;20494;-67
2021/03/12 10:37:47;;;;;;;45.35;29.50;;;9.20;99.90;;;;;;20885585;28;20057;-67
2021/03/12 10:47:58;;;;;;;49.92;29.02;;;9.70;99.90;;;;;;20885414;28;20033;-66
2021/03/12 10:58:01;;;;;;;44.72;28.00;;;10.50;99.90;;;;;;20868466;28;20049;-67
2021/03/12 11:08:02;;;;;;;43.25;28.45;;;11.70;99.90;;;;;;20884858;28;20407;-66
2021/03/12 11:18:04;;;;;;;14.52;9.73;;;11.70;99.90;;;;;;20866474;28;20550;-67
2021/03/12 11:28:07;;;;;;;13.43;8.57;;;11.50;99.90;;;;;;20889626;28;20037;-68
2021/03/12 11:38:09;;;;;;;23.40;15.15;;;11.50;96.50;;;;;;20898519;28;20495;-68
2021/03/12 11:48:11;;;;;;;12.77;8.20;;;11.70;99.90;;;;;;20880272;28;20045;-68
2021/03/12 11:58:13;;;;;;;14.73;9.95;;;11.90;94.50;;;;;;20898229;28;20068;-68
2021/03/12 12:08:15;;;;;;;9.57;6.03;;;12.20;93.50;;;;;;21057266;22;20059;-53
2021/03/12 12:18:18;;;;;;;22.08;14.00;;;12.40;90.50;;;;;;20845262;28;20441;-47
2021/03/12 12:28:20;;;;;;;10.23;6.55;;;12.70;90.30;;;;;;20861737;28;20095;-51
2021/03/12 12:38:22;;;;;;;6.30;4.35;;;12.70;86.60;;;;;;20859017;28;20055;-47
2021/03/12 12:48:23;;;;;;;4.57;2.60;;;11.00;86.00;;;;;;20894103;28;20402;-47
2021/03/12 12:58:25;;;;;;;5.97;3.90;;;9.20;91.60;;;;;;20893174;28;20479;-46
2021/03/12 13:08:27;;;;;;;7.03;3.53;;;9.60;91.90;;;;;;20775771;28;20045;-45
2021/03/12 13:18:31;;;;;;;7.00;3.40;;;9.70;92.30;;;;;;20791379;28;20037;-47
2021/03/12 13:28:33;;;;;;;10.65;6.63;;;9.70;88.00;;;;;;20807520;28;20033;-47
2021/03/12 13:38:35;;;;;;;12.40;8.55;;;10.20;88.80;;;;;;20789433;28;20050;-49
2021/03/12 13:48:38;;;;;;;19.30;12.80;;;10.70;88.30;;;;;;20772787;28;20141;-57
2021/03/12 13:58:40;;;;;;;22.10;13.88;;;10.90;87.80;;;;;;20789109;28;20168;-50
2021/03/12 14:08:42;;;;;;;28.20;17.35;;;10.90;89.20;;;;;;20788546;28;20045;-46
2021/03/12 14:18:44;;;;;;;42.00;26.67;;;10.70;91.60;;;;;;20804442;28;20045;-46
2021/03/12 14:28:46;;;;;;;45.90;29.92;;;10.40;94.90;;;;;;20804879;28;20087;-53
2021/03/12 14:38:48;;;;;;;37.40;24.60;;;10.00;99.10;;;;;;20798134;28;20045;-46
2021/03/12 14:48:50;;;;;;;54.90;34.28;;;9.60;96.80;;;;;;20802091;28;20046;-49
2021/03/12 14:58:52;;;;;;;29.83;18.60;;;9.40;99.90;;;;;;20770067;28;20045;-48
2021/03/12 15:08:54;;;;;;;64.18;39.60;;;9.30;97.20;;;;;;20793530;28;20053;-46
2021/03/12 15:18:57;;;;;;;75.95;45.60;;;8.90;99.90;;;;;;20799909;28;20038;-47
2021/03/12 15:28:59;;;;;;;79.28;44.50;;;8.60;99.90;;;;;;20801363;28;20064;-50
2021/03/12 15:39:02;;;;;;;62.00;36.88;;;8.20;99.90;;;;;;20798637;28;20049;-48
2021/03/12 15:49:04;;;;;;;21.67;13.98;;;7.60;99.90;;;;;;20783741;28;20530;-46
2021/03/12 15:59:26;;;;;;;6.88;4.60;;;7.40;99.90;;;;;;20813787;28;20111;-47
2021/03/12 16:09:29;;;;;;;6.93;4.10;;;7.20;94.30;;;;;;20857171;28;20045;-46
2021/03/12 16:19:32;;;;;;;8.35;3.25;;;6.70;96.00;;;;;;20819754;28;20046;-46
2021/03/12 16:30:09;;;;;;;4.25;2.45;;;6.40;95.00;;;;;;20811385;28;20041;-49
2021/03/12 16:40:13;;;;;;;7.72;4.30;;;6.20;95.10;;;;;;20819770;28;20041;-49
2021/03/12 16:50:15;;;;;;;9.07;4.93;;;6.00;93.20;;;;;;20794195;28;20049;-52
2021/03/12 17:00:18;;;;;;;10.80;6.65;;;5.60;92.40;;;;;;20777948;28;20083;-49
2021/03/12 17:10:21;;;;;;;27.50;12.45;;;5.50;94.50;;;;;;20861697;28;20045;-48
2021/03/12 17:20:25;;;;;;;36.58;20.85;;;5.50;98.50;;;;;;20824585;28;20033;-50
2021/03/12 17:30:28;;;;;;;43.08;23.77;;;5.80;99.90;;;;;;20807743;28;20056;-48
2021/03/12 17:40:34;;;;;;;48.88;24.33;;;5.10;99.90;;;;;;20808369;28;20103;-47
2021/03/12 17:50:39;;;;;;;38.88;20.25;;;4.40;99.90;;;;;;20805631;28;20056;-47
2021/03/12 18:00:41;;;;;;;20.90;13.20;;;3.70;99.90;;;;;;20776431;28;20045;-47
2021/03/12 18:10:45;;;;;;;33.60;17.75;;;3.30;99.90;;;;;;20833387;28;20110;-46
2021/03/12 18:20:47;;;;;;;57.22;29.90;;;3.10;99.90;;;;;;20801640;28;20442;-48
2021/03/12 18:30:49;;;;;;;46.00;24.60;;;3.00;99.90;;;;;;20786397;28;20089;-50
2021/03/12 18:40:52;;;;;;;16.88;9.80;;;3.40;99.90;;;;;;20798316;28;20052;-47
2021/03/12 18:50:54;;;;;;;34.40;19.98;;;3.10;99.90;;;;;;20802006;28;20384;-47
2021/03/12 19:00:56;;;;;;;8.95;4.47;;;2.90;99.90;;;;;;20792433;28;20058;-48
2021/03/12 19:10:58;;;;;;;5.80;3.58;;;3.00;99.90;;;;;;20901702;28;20119;-56
2021/03/12 19:21:01;;;;;;;17.02;9.63;;;3.20;99.90;;;;;;20811992;28;20037;-46
2021/03/12 19:31:04;;;;;;;33.55;15.63;;;2.80;99.90;;;;;;20816095;28;20092;-47
2021/03/12 19:41:08;;;;;;;12.48;6.35;;;2.40;99.90;;;;;;20816445;28;20038;-64
2021/03/12 19:51:12;;;;;;;12.43;6.03;;;2.60;99.90;;;;;;20876525;28;20443;-65
2021/03/12 20:01:16;;;;;;;14.48;6.60;;;3.30;99.90;;;;;;20836354;28;20041;-63
2021/03/12 20:11:21;;;;;;;19.50;10.00;;;2.80;99.90;;;;;;20797254;28;20057;-66
2021/03/12 20:21:27;;;;;;;21.27;10.27;;;2.80;99.90;;;;;;20779123;28;20107;-68
2021/03/12 20:31:29;;;;;;;18.08;8.88;;;2.50;99.90;;;;;;20801829;28;20103;-61
2021/03/12 20:41:35;;;;;;;19.92;10.50;;;2.00;99.90;;;;;;20779507;28;20057;-65
2021/03/12 20:51:39;;;;;;;48.25;23.92;;;2.80;99.90;;;;;;20793088;28;20083;-65
2021/03/12 21:01:42;;;;;;;40.67;20.85;;;2.70;99.90;;;;;;20803610;28;20049;-61
2021/03/12 21:11:44;;;;;;;29.48;17.17;;;2.40;99.90;;;;;;20857525;28;20041;-62
2021/03/12 21:21:48;;;;;;;29.48;14.60;;;1.70;99.90;;;;;;20795725;28;20048;-61
2021/03/12 21:31:51;;;;;;;31.65;16.25;;;1.10;99.90;;;;;;20808096;28;20106;-66
2021/03/12 21:41:53;;;;;;;25.52;12.93;;;0.70;99.90;;;;;;20843406;28;20047;-65
2021/03/12 21:51:55;;;;;;;32.85;13.40;;;0.50;99.90;;;;;;20791773;28;20036;-63
2021/03/12 22:01:57;;;;;;;22.88;11.80;;;0.40;99.90;;;;;;20841945;28;20384;-64
2021/03/12 22:12:01;;;;;;;20.70;10.90;;;0.40;99.90;;;;;;20884504;28;20045;-67
2021/03/12 22:22:02;;;;;;;23.95;11.13;;;0.40;99.90;;;;;;20851619;28;20063;-64
2021/03/12 22:32:05;;;;;;;17.65;9.55;;;0.30;99.90;;;;;;20840674;28;20548;-64
2021/03/12 22:42:07;;;;;;;15.90;7.75;;;0.10;99.90;;;;;;20835767;28;20446;-63
2021/03/12 22:52:14;;;;;;;16.30;7.40;;;0.10;99.90;;;;;;20817982;28;20040;-51
2021/03/12 23:02:16;;;;;;;10.30;5.72;;;0.30;99.90;;;;;;20865161;28;20423;-53
2021/03/12 23:12:18;;;;;;;10.45;5.35;;;0.20;99.90;;;;;;20884967;28;20072;-49
2021/03/12 23:22:20;;;;;;;10.80;4.43;;;0.10;99.90;;;;;;20883048;28;20049;-51
2021/03/12 23:32:22;;;;;;;7.30;3.20;;;-0.10;99.90;;;;;;20847975;28;20438;-55
2021/03/12 23:42:24;;;;;;;4.35;2.17;;;-0.10;99.90;;;;;;20849268;28;20045;-49
2021/03/12 23:52:26;;;;;;;4.38;2.42;;;0.20;99.90;;;;;;20803497;28;20037;-50
